Hot Springs, VA

6:51 PM EDT on March 23, 2017 (GMT -0400)
Ingalls

Weather History for KHSP - January, 2003

Change the Weather History Date:

Tuesday, January 21, 2003

  Actual Average Record
Temperature  
Mean Temperature 22 °F -  
Max Temperature 28 °F 30 °F 55 °F (2017)
Min Temperature 15 °F 16 °F 0 °F (2000)
Degree Days  
Heating Degree Days 44    
Moisture  
Dew Point 16 °F    
Average Humidity 71    
Maximum Humidity 80    
Minimum Humidity 58    
Precipitation  
Precipitation 0.00 in - - ()
Sea Level Pressure  
Sea Level Pressure 29.81 in    
Wind  
Wind Speed 14 mph (West)    
Max Wind Speed 18 mph    
Max Gust Speed 28 mph    
Visibility 10 miles    
Events      
Averages and records for this station are not official NWS values.
T = Trace of Precipitation, MM = Missing Value Source: NWS Daily Summary

Daily Weather History Graph

Daily Weather History Graph

Search for Another Location

Airport or City:

Trip Planner

Search our weather history database for the weather conditions in past years. The results will help you decide how hot, cold, wet, or windy it might be!

Date:

Astronomy

Jan. 21, 2003 Rise Set
Actual Time 7:31 AM EST 5:30 PM EST
Civil Twilight 7:03 AM EST 5:58 PM EST
Nautical Twilight 6:31 AM EST 6:30 PM EST
Astronomical Twilight 5:59 AM EST 7:01 PM EST
Moon 9:13 PM EST (1/21) 9:55 AM EST (1/21)
Length of Visible Light 10h 55m
Length of Day
9h 58m
Waning Gibbous, 87% of the Moon is Illuminated
Jan 21
Waning Gibbous
Jan 25
Last Quarter
Feb 1
New
Feb 9
First Quarter
Feb 16
Full

Hourly Weather History & Observations

Time (EST) Temp. Windchill Dew Point Humidity Pressure Visibility Wind Dir Wind Speed Gust Speed Precip Events Conditions
12:00 AM 26.6 °F 13.8 °F 19.4 °F 74% 29.79 in 10.0 mi West 17.3 mph 25.3 mph N/A   Overcast
12:20 AM 26.6 °F 13.4 °F 19.4 °F 74% 29.79 in 10.0 mi West 18.4 mph - N/A   Overcast
12:40 AM 26.6 °F 14.3 °F 19.4 °F 74% 29.79 in 10.0 mi West 16.1 mph 19.6 mph N/A   Overcast
1:00 AM 26.6 °F 13.8 °F 21.2 °F 80% 29.79 in 10.0 mi West 17.3 mph 27.6 mph N/A   Overcast
1:20 AM 26.6 °F 13.8 °F 21.2 °F 80% 29.79 in 10.0 mi West 17.3 mph 24.2 mph N/A   Overcast
1:40 AM 26.6 °F 14.7 °F 19.4 °F 74% 29.80 in 10.0 mi West 15.0 mph 24.2 mph N/A   Overcast
2:00 AM 26.6 °F 14.3 °F 21.2 °F 80% 29.80 in 10.0 mi West 16.1 mph 25.3 mph N/A   Overcast
2:20 AM 26.6 °F 14.7 °F 19.4 °F 74% 29.81 in 10.0 mi West 15.0 mph - N/A   Overcast
2:40 AM 26.6 °F 15.2 °F 19.4 °F 74% 29.81 in 10.0 mi West 13.8 mph - N/A   Overcast
3:00 AM 26.6 °F 14.7 °F 19.4 °F 74% 29.81 in 10.0 mi West 15.0 mph 20.7 mph N/A   Overcast
3:20 AM 24.8 °F 13.4 °F 19.4 °F 80% 29.80 in 10.0 mi West 12.7 mph 19.6 mph N/A   Overcast
3:40 AM 24.8 °F 14.0 °F 19.4 °F 80% 29.81 in 10.0 mi West 11.5 mph - N/A   Mostly Cloudy
4:00 AM 24.8 °F 15.3 °F 19.4 °F 80% 29.80 in 10.0 mi West 9.2 mph - N/A   Overcast
4:20 AM 24.8 °F 15.3 °F 19.4 °F 80% 29.80 in 10.0 mi West 9.2 mph - N/A   Overcast
4:40 AM 24.8 °F 14.6 °F 19.4 °F 80% 29.80 in 10.0 mi West 10.4 mph - N/A   Overcast
5:00 AM 24.8 °F 16.1 °F 19.4 °F 80% 29.81 in 10.0 mi West 8.1 mph - N/A   Mostly Cloudy
5:20 AM 24.8 °F 13.4 °F 19.4 °F 80% 29.81 in 10.0 mi West 12.7 mph - N/A   Overcast
5:40 AM 24.8 °F 15.3 °F 19.4 °F 80% 29.81 in 10.0 mi West 9.2 mph - N/A   Overcast
6:00 AM 24.8 °F 15.3 °F 17.6 °F 74% 29.81 in 10.0 mi West 9.2 mph - N/A   Overcast
6:20 AM 24.8 °F 14.6 °F 17.6 °F 74% 29.82 in 10.0 mi WSW 10.4 mph - N/A   Overcast
6:40 AM 24.8 °F 14.0 °F 17.6 °F 74% 29.82 in 10.0 mi West 11.5 mph - N/A   Overcast
7:00 AM 24.8 °F 13.4 °F 17.6 °F 74% 29.82 in 10.0 mi West 12.7 mph - N/A   Overcast
7:20 AM 24.8 °F 13.4 °F 17.6 °F 74% 29.82 in 10.0 mi West 12.7 mph - N/A   Overcast
7:40 AM 24.8 °F 14.0 °F 17.6 °F 74% 29.82 in 10.0 mi West 11.5 mph - N/A   Overcast
8:00 AM 24.8 °F 12.9 °F 17.6 °F 74% 29.82 in 10.0 mi West 13.8 mph - N/A   Overcast
8:20 AM 24.8 °F 13.4 °F 15.8 °F 69% 29.82 in 10.0 mi West 12.7 mph - N/A   Overcast
8:40 AM 24.8 °F 13.4 °F 17.6 °F 74% 29.82 in 10.0 mi West 12.7 mph - N/A   Overcast
9:00 AM 24.8 °F 14.6 °F 15.8 °F 69% 29.82 in 10.0 mi West 10.4 mph - N/A   Overcast
9:20 AM 24.8 °F 14.0 °F 17.6 °F 74% 29.81 in 10.0 mi West 11.5 mph - N/A   Overcast
9:40 AM 24.8 °F 14.0 °F 17.6 °F 74% 29.81 in 10.0 mi West 11.5 mph - N/A   Overcast
10:00 AM 24.8 °F 14.6 °F 17.6 °F 74% 29.82 in 10.0 mi West 10.4 mph - N/A   Overcast
10:20 AM 24.8 °F 14.0 °F 17.6 °F 74% 29.81 in 10.0 mi West 11.5 mph - N/A   Overcast
10:40 AM 24.8 °F 12.4 °F 17.6 °F 74% 29.82 in 10.0 mi West 15.0 mph - N/A   Overcast
11:00 AM 24.8 °F 12.9 °F 17.6 °F 74% 29.82 in 10.0 mi West 13.8 mph - N/A   Overcast
11:20 AM 24.8 °F 14.0 °F 17.6 °F 74% 29.82 in 10.0 mi West 11.5 mph - N/A   Overcast
11:40 AM 24.8 °F 14.0 °F 17.6 °F 74% 29.81 in 10.0 mi West 11.5 mph - N/A   Overcast
12:00 PM 24.8 °F 12.9 °F 17.6 °F 74% 29.81 in 10.0 mi West 13.8 mph 17.3 mph N/A   Overcast
12:20 PM 26.6 °F 15.7 °F 17.6 °F 69% 29.80 in 10.0 mi WNW 12.7 mph - N/A   Overcast
12:40 PM 26.6 °F 16.2 °F 15.8 °F 64% 29.79 in 10.0 mi West 11.5 mph 16.1 mph N/A   Mostly Cloudy
1:00 PM 26.6 °F 15.2 °F 15.8 °F 64% 29.78 in 10.0 mi West 13.8 mph - N/A   Overcast
1:20 PM 28.4 °F 19.1 °F 17.6 °F 64% 29.78 in 10.0 mi West 10.4 mph - N/A   Mostly Cloudy
1:40 PM 28.4 °F 18.0 °F 17.6 °F 64% 29.78 in 10.0 mi West 12.7 mph 16.1 mph N/A   Mostly Cloudy
2:00 PM 28.4 °F 18.5 °F 17.6 °F 64% 29.78 in 10.0 mi WNW 11.5 mph - N/A   Overcast
2:20 PM 28.4 °F 18.0 °F 17.6 °F 64% 29.78 in 10.0 mi WNW 12.7 mph 19.6 mph N/A   Overcast
2:40 PM 26.6 °F 15.2 °F 15.8 °F 64% 29.78 in 10.0 mi NW 13.8 mph 19.6 mph N/A   Overcast
3:00 PM 26.6 °F 16.8 °F 15.8 °F 64% 29.78 in 10.0 mi NW 10.4 mph 17.3 mph N/A   Mostly Cloudy
3:20 PM 24.8 °F 13.4 °F 15.8 °F 69% 29.79 in 10.0 mi WNW 12.7 mph 18.4 mph N/A   Mostly Cloudy
3:40 PM 24.8 °F 14.0 °F 15.8 °F 69% 29.80 in 10.0 mi NW 11.5 mph 18.4 mph N/A   Mostly Cloudy
4:00 PM 23.0 °F 11.7 °F 12.2 °F 63% 29.80 in 10.0 mi NW 11.5 mph - N/A   Scattered Clouds
4:20 PM 21.2 °F 10.9 °F 12.2 °F 68% 29.81 in 10.0 mi NNW 9.2 mph 18.4 mph N/A   Scattered Clouds
4:40 PM 21.2 °F 8.9 °F 10.4 °F 63% 29.81 in 10.0 mi NW 12.7 mph - N/A   Clear
5:00 PM 19.4 °F 6.6 °F 10.4 °F 68% 29.82 in 10.0 mi NW 12.7 mph 16.1 mph N/A   Clear
5:20 PM 19.4 °F 7.2 °F 8.6 °F 63% 29.82 in 10.0 mi WNW 11.5 mph 16.1 mph N/A   Clear
5:40 PM 19.4 °F 7.2 °F 6.8 °F 58% 29.83 in 10.0 mi WNW 11.5 mph 18.4 mph N/A   Clear
6:00 PM 17.6 °F 5.0 °F 6.8 °F 63% 29.84 in 10.0 mi NW 11.5 mph 16.1 mph N/A   Clear
6:20 PM 17.6 °F 5.0 °F 5.0 °F 58% 29.84 in 10.0 mi NW 11.5 mph 18.4 mph N/A   Clear
6:40 PM 17.6 °F 5.0 °F 5.0 °F 58% 29.84 in 10.0 mi WNW 11.5 mph 17.3 mph N/A   Clear
7:00 PM 15.8 °F 4.2 °F 5.0 °F 62% 29.85 in 10.0 mi WNW 9.2 mph - N/A   Clear
7:20 PM 15.8 °F 3.4 °F 5.0 °F 62% 29.86 in 10.0 mi WNW 10.4 mph - N/A   Clear
7:40 PM 15.8 °F 2.1 °F 5.0 °F 62% 29.86 in 10.0 mi West 12.7 mph - N/A   Clear
8:00 PM 15.8 °F 1.4 °F 5.0 °F 62% 29.86 in 10.0 mi WNW 13.8 mph - N/A   Clear
8:20 PM 14.0 °F 0.5 °F 5.0 °F 67% 29.86 in 10.0 mi WNW 11.5 mph - N/A   Clear
8:40 PM 14.0 °F -1.4 °F 6.8 °F 73% 29.86 in 10.0 mi WNW 15.0 mph - N/A   Clear
9:00 PM 14.0 °F -2.0 °F 6.8 °F 73% 29.85 in 10.0 mi West 16.1 mph - N/A   Clear
9:20 PM 12.2 °F -0.2 °F 6.8 °F 79% 29.85 in 10.0 mi WNW 9.2 mph - N/A   Clear
9:40 PM 12.2 °F -1.0 °F 5.0 °F 73% 29.86 in 10.0 mi WNW 10.4 mph 17.3 mph N/A   Clear
10:00 PM 12.2 °F 0.7 °F 5.0 °F 73% 29.85 in 10.0 mi WNW 8.1 mph - N/A   Clear
10:20 PM 12.2 °F 1.7 °F 3.2 °F 67% 29.86 in 10.0 mi WNW 6.9 mph - N/A   Clear
10:40 PM 10.4 °F -0.4 °F 3.2 °F 73% 29.86 in 10.0 mi WNW 6.9 mph - N/A   Clear
11:00 PM 10.4 °F -1.5 °F 3.2 °F 73% 29.86 in 10.0 mi WNW 8.1 mph - N/A   Clear
11:20 PM 10.4 °F 0.8 °F 3.2 °F 73% 29.86 in 10.0 mi WNW 5.8 mph - N/A   Clear
11:40 PM 10.4 °F -1.5 °F 3.2 °F 73% 29.86 in 10.0 mi WNW 8.1 mph - N/A   Clear